sensor_id;sensor_type;location;lat;lon;timestamp;pressure;altitude;pressure_sealevel;temperature;humidity
53246;BME280;39569;51.090;-1.786;2022-09-03T00:00:59;100199.34;;;20.09;65.97
53246;BME280;39569;51.090;-1.786;2022-09-03T00:03:31;100197.28;;;20.33;64.76
53246;BME280;39569;51.090;-1.786;2022-09-03T00:06:09;100194.03;;;19.98;66.32
53246;BME280;39569;51.090;-1.786;2022-09-03T00:08:42;100192.78;;;20.05;65.57
53246;BME280;39569;51.090;-1.786;2022-09-03T00:11:13;100189.69;;;19.97;65.60
53246;BME280;39569;51.090;-1.786;2022-09-03T00:13:46;100192.72;;;20.00;65.14
53246;BME280;39569;51.090;-1.786;2022-09-03T00:16:19;100189.06;;;19.73;65.83
53246;BME280;39569;51.090;-1.786;2022-09-03T00:18:50;100189.63;;;19.58;66.35
53246;BME280;39569;51.090;-1.786;2022-09-03T00:21:24;100180.25;;;19.33;66.58
53246;BME280;39569;51.090;-1.786;2022-09-03T00:23:52;100172.75;;;19.23;67.03
53246;BME280;39569;51.090;-1.786;2022-09-03T00:26:24;100176.25;;;19.24;66.80
53246;BME280;39569;51.090;-1.786;2022-09-03T00:28:58;100167.53;;;19.05;67.53
53246;BME280;39569;51.090;-1.786;2022-09-03T00:31:32;100167.09;;;19.25;66.88
53246;BME280;39569;51.090;-1.786;2022-09-03T00:34:05;100171.16;;;19.55;66.29
53246;BME280;39569;51.090;-1.786;2022-09-03T00:36:37;100158.44;;;19.39;66.95
53246;BME280;39569;51.090;-1.786;2022-09-03T00:39:09;100163.78;;;19.68;66.11
53246;BME280;39569;51.090;-1.786;2022-09-03T00:41:38;100157.66;;;19.60;66.19
53246;BME280;39569;51.090;-1.786;2022-09-03T00:44:24;100160.16;;;19.79;65.37
53246;BME280;39569;51.090;-1.786;2022-09-03T00:47:02;100159.22;;;19.23;66.30
53246;BME280;39569;51.090;-1.786;2022-09-03T00:49:38;100162.22;;;19.10;66.76
53246;BME280;39569;51.090;-1.786;2022-09-03T00:52:16;100158.78;;;19.15;66.96
53246;BME280;39569;51.090;-1.786;2022-09-03T00:54:53;100153.03;;;19.11;66.72
53246;BME280;39569;51.090;-1.786;2022-09-03T00:57:32;100152.84;;;19.46;65.15
53246;BME280;39569;51.090;-1.786;2022-09-03T01:00:05;100155.53;;;19.63;64.69
53246;BME280;39569;51.090;-1.786;2022-09-03T01:02:46;100149.16;;;19.52;65.39
53246;BME280;39569;51.090;-1.786;2022-09-03T01:05:27;100147.16;;;19.47;64.67
53246;BME280;39569;51.090;-1.786;2022-09-03T01:08:08;100139.03;;;19.47;64.82
53246;BME280;39569;51.090;-1.786;2022-09-03T01:10:45;100141.63;;;19.26;65.23
53246;BME280;39569;51.090;-1.786;2022-09-03T01:13:19;100144.34;;;19.26;65.14
53246;BME280;39569;51.090;-1.786;2022-09-03T01:15:55;100144.56;;;19.08;65.60
53246;BME280;39569;51.090;-1.786;2022-09-03T01:18:35;100151.44;;;18.99;65.96
53246;BME280;39569;51.090;-1.786;2022-09-03T01:21:22;100149.34;;;19.17;65.38
53246;BME280;39569;51.090;-1.786;2022-09-03T01:24:19;100148.94;;;18.81;67.18
53246;BME280;39569;51.090;-1.786;2022-09-03T01:27:08;100147.13;;;18.70;67.61
53246;BME280;39569;51.090;-1.786;2022-09-03T01:29:46;100139.41;;;18.78;67.38
53246;BME280;39569;51.090;-1.786;2022-09-03T01:32:24;100148.41;;;18.95;66.84
53246;BME280;39569;51.090;-1.786;2022-09-03T01:35:01;100146.50;;;18.96;67.14
53246;BME280;39569;51.090;-1.786;2022-09-03T01:37:39;100147.50;;;18.90;67.90
53246;BME280;39569;51.090;-1.786;2022-09-03T01:40:17;100146.00;;;18.82;68.42
53246;BME280;39569;51.090;-1.786;2022-09-03T01:42:57;100142.84;;;18.74;68.15
53246;BME280;39569;51.090;-1.786;2022-09-03T01:45:44;100142.03;;;18.22;69.25
53246;BME280;39569;51.090;-1.786;2022-09-03T01:48:39;100144.34;;;18.53;67.54
53246;BME280;39569;51.090;-1.786;2022-09-03T01:51:16;100140.72;;;18.76;66.42
53246;BME280;39569;51.090;-1.786;2022-09-03T01:53:59;100137.59;;;18.95;65.29
53246;BME280;39569;51.090;-1.786;2022-09-03T01:56:42;100141.78;;;18.75;65.90
53246;BME280;39569;51.090;-1.786;2022-09-03T01:59:15;100140.53;;;18.94;64.98
53246;BME280;39569;51.090;-1.786;2022-09-03T02:01:52;100150.53;;;18.93;64.83
53246;BME280;39569;51.090;-1.786;2022-09-03T02:04:25;100155.56;;;18.73;65.54
53246;BME280;39569;51.090;-1.786;2022-09-03T02:06:55;100154.09;;;18.54;67.23
53246;BME280;39569;51.090;-1.786;2022-09-03T02:09:23;100148.41;;;18.67;66.79
53246;BME280;39569;51.090;-1.786;2022-09-03T02:11:55;100136.91;;;18.60;68.07
53246;BME280;39569;51.090;-1.786;2022-09-03T02:14:25;100145.75;;;18.55;70.63
53246;BME280;39569;51.090;-1.786;2022-09-03T02:16:56;100144.03;;;18.66;70.07
53246;BME280;39569;51.090;-1.786;2022-09-03T02:19:26;100149.00;;;18.69;69.61
53246;BME280;39569;51.090;-1.786;2022-09-03T02:21:55;100148.69;;;18.31;69.45
53246;BME280;39569;51.090;-1.786;2022-09-03T02:24:23;100153.56;;;18.17;69.43
53246;BME280;39569;51.090;-1.786;2022-09-03T02:26:51;100143.88;;;18.56;67.48
53246;BME280;39569;51.090;-1.786;2022-09-03T02:29:19;100148.09;;;18.52;67.60
53246;BME280;39569;51.090;-1.786;2022-09-03T02:31:47;100146.47;;;18.51;67.95
53246;BME280;39569;51.090;-1.786;2022-09-03T02:34:15;100143.19;;;18.49;68.52
53246;BME280;39569;51.090;-1.786;2022-09-03T02:36:43;100145.97;;;18.54;68.53
53246;BME280;39569;51.090;-1.786;2022-09-03T02:39:11;100151.53;;;18.47;68.33
53246;BME280;39569;51.090;-1.786;2022-09-03T02:41:38;100153.16;;;18.60;68.02
53246;BME280;39569;51.090;-1.786;2022-09-03T02:44:08;100155.19;;;18.30;68.44
53246;BME280;39569;51.090;-1.786;2022-09-03T02:46:41;100154.13;;;18.31;68.10
53246;BME280;39569;51.090;-1.786;2022-09-03T02:49:09;100150.09;;;17.94;68.59
53246;BME280;39569;51.090;-1.786;2022-09-03T02:51:39;100153.34;;;17.96;68.06
53246;BME280;39569;51.090;-1.786;2022-09-03T02:54:07;100146.91;;;17.97;67.77
53246;BME280;39569;51.090;-1.786;2022-09-03T02:56:35;100141.59;;;18.13;66.90
53246;BME280;39569;51.090;-1.786;2022-09-03T02:59:02;100148.91;;;17.90;67.23
53246;BME280;39569;51.090;-1.786;2022-09-03T03:01:29;100147.47;;;18.10;66.31
53246;BME280;39569;51.090;-1.786;2022-09-03T03:03:55;100145.47;;;17.94;66.64
53246;BME280;39569;51.090;-1.786;2022-09-03T03:06:22;100144.88;;;18.04;67.67
53246;BME280;39569;51.090;-1.786;2022-09-03T03:08:51;100151.69;;;18.18;68.76
53246;BME280;39569;51.090;-1.786;2022-09-03T03:11:21;100149.84;;;17.84;69.54
53246;BME280;39569;51.090;-1.786;2022-09-03T03:13:50;100144.78;;;17.99;68.98
53246;BME280;39569;51.090;-1.786;2022-09-03T03:16:18;100148.84;;;18.24;69.75
53246;BME280;39569;51.090;-1.786;2022-09-03T03:18:44;100142.88;;;18.11;71.52
53246;BME280;39569;51.090;-1.786;2022-09-03T03:21:13;100143.34;;;18.19;70.67
53246;BME280;39569;51.090;-1.786;2022-09-03T03:23:40;100142.03;;;18.45;70.28
53246;BME280;39569;51.090;-1.786;2022-09-03T03:26:10;100139.91;;;18.47;70.19
53246;BME280;39569;51.090;-1.786;2022-09-03T03:28:37;100145.06;;;18.25;70.93
53246;BME280;39569;51.090;-1.786;2022-09-03T03:31:07;100139.66;;;18.37;70.37
53246;BME280;39569;51.090;-1.786;2022-09-03T03:33:34;100141.00;;;18.23;71.08
53246;BME280;39569;51.090;-1.786;2022-09-03T03:36:06;100135.59;;;18.11;70.95
53246;BME280;39569;51.090;-1.786;2022-09-03T03:38:34;100135.06;;;18.37;70.00
53246;BME280;39569;51.090;-1.786;2022-09-03T03:41:07;100135.97;;;17.92;71.64
53246;BME280;39569;51.090;-1.786;2022-09-03T03:43:34;100144.97;;;18.09;71.30
53246;BME280;39569;51.090;-1.786;2022-09-03T03:46:01;100141.44;;;18.20;70.96
53246;BME280;39569;51.090;-1.786;2022-09-03T03:48:28;100137.44;;;18.34;70.60
53246;BME280;39569;51.090;-1.786;2022-09-03T03:50:59;100141.41;;;18.54;69.89
53246;BME280;39569;51.090;-1.786;2022-09-03T03:53:27;100132.59;;;18.36;69.50
53246;BME280;39569;51.090;-1.786;2022-09-03T03:55:54;100138.56;;;18.49;69.23
53246;BME280;39569;51.090;-1.786;2022-09-03T03:58:23;100138.97;;;18.41;69.87
53246;BME280;39569;51.090;-1.786;2022-09-03T04:00:50;100137.44;;;18.34;70.56
53246;BME280;39569;51.090;-1.786;2022-09-03T04:03:17;100134.22;;;18.60;69.92
53246;BME280;39569;51.090;-1.786;2022-09-03T04:05:54;100125.34;;;18.64;69.62
53246;BME280;39569;51.090;-1.786;2022-09-03T04:08:21;100129.13;;;18.63;69.69
53246;BME280;39569;51.090;-1.786;2022-09-03T04:10:48;100126.22;;;18.53;69.50
53246;BME280;39569;51.090;-1.786;2022-09-03T04:13:16;100119.09;;;18.36;70.64
53246;BME280;39569;51.090;-1.786;2022-09-03T04:15:44;100120.09;;;18.58;70.01
53246;BME280;39569;51.090;-1.786;2022-09-03T04:18:11;100118.31;;;18.63;69.77
53246;BME280;39569;51.090;-1.786;2022-09-03T04:20:38;100120.88;;;18.42;69.86
53246;BME280;39569;51.090;-1.786;2022-09-03T04:23:05;100120.53;;;18.27;67.82
53246;BME280;39569;51.090;-1.786;2022-09-03T04:25:32;100125.38;;;18.02;68.42
53246;BME280;39569;51.090;-1.786;2022-09-03T04:27:59;100119.66;;;17.75;69.87
53246;BME280;39569;51.090;-1.786;2022-09-03T04:30:28;100109.41;;;18.12;68.97
53246;BME280;39569;51.090;-1.786;2022-09-03T04:32:56;100116.09;;;18.09;68.87
53246;BME280;39569;51.090;-1.786;2022-09-03T04:35:25;100112.56;;;18.09;69.30
53246;BME280;39569;51.090;-1.786;2022-09-03T04:37:53;100111.06;;;18.41;67.75
53246;BME280;39569;51.090;-1.786;2022-09-03T04:40:20;100117.75;;;17.87;69.55
53246;BME280;39569;51.090;-1.786;2022-09-03T04:42:47;100107.09;;;17.69;69.91
53246;BME280;39569;51.090;-1.786;2022-09-03T04:45:14;100115.19;;;17.69;70.45
53246;BME280;39569;51.090;-1.786;2022-09-03T04:47:43;100113.91;;;17.72;70.70
53246;BME280;39569;51.090;-1.786;2022-09-03T04:50:13;100103.31;;;17.70;70.35
53246;BME280;39569;51.090;-1.786;2022-09-03T04:52:40;100105.84;;;17.19;72.25
53246;BME280;39569;51.090;-1.786;2022-09-03T04:55:07;100112.38;;;17.64;70.05
53246;BME280;39569;51.090;-1.786;2022-09-03T04:57:35;100110.63;;;17.70;70.51
53246;BME280;39569;51.090;-1.786;2022-09-03T05:00:04;100110.72;;;17.40;71.34
53246;BME280;39569;51.090;-1.786;2022-09-03T05:02:34;100106.41;;;17.62;70.74
53246;BME280;39569;51.090;-1.786;2022-09-03T05:05:01;100101.81;;;17.74;70.40
53246;BME280;39569;51.090;-1.786;2022-09-03T05:07:30;100095.81;;;17.49;71.07
53246;BME280;39569;51.090;-1.786;2022-09-03T05:10:04;100096.13;;;17.41;71.37
53246;BME280;39569;51.090;-1.786;2022-09-03T05:12:31;100103.09;;;17.48;70.76
53246;BME280;39569;51.090;-1.786;2022-09-03T05:14:58;100100.41;;;17.60;70.44
53246;BME280;39569;51.090;-1.786;2022-09-03T05:17:25;100096.00;;;18.05;70.22
53246;BME280;39569;51.090;-1.786;2022-09-03T05:19:52;100096.56;;;18.07;70.10
53246;BME280;39569;51.090;-1.786;2022-09-03T05:22:19;100104.09;;;18.17;69.29
53246;BME280;39569;51.090;-1.786;2022-09-03T05:24:47;100099.25;;;18.30;69.29
53246;BME280;39569;51.090;-1.786;2022-09-03T05:27:14;100102.38;;;17.88;70.40
53246;BME280;39569;51.090;-1.786;2022-09-03T05:29:42;100103.66;;;17.85;71.14
53246;BME280;39569;51.090;-1.786;2022-09-03T05:32:09;100108.06;;;18.26;69.77
53246;BME280;39569;51.090;-1.786;2022-09-03T05:34:37;100101.69;;;18.43;69.60
53246;BME280;39569;51.090;-1.786;2022-09-03T05:37:03;100106.44;;;18.25;69.73
53246;BME280;39569;51.090;-1.786;2022-09-03T05:39:30;100101.28;;;18.51;69.34
53246;BME280;39569;51.090;-1.786;2022-09-03T05:41:58;100103.47;;;18.66;68.33
53246;BME280;39569;51.090;-1.786;2022-09-03T05:44:25;100115.06;;;18.38;70.00
53246;BME280;39569;51.090;-1.786;2022-09-03T05:46:52;100106.13;;;18.78;68.92
53246;BME280;39569;51.090;-1.786;2022-09-03T05:49:19;100107.19;;;18.77;68.58
53246;BME280;39569;51.090;-1.786;2022-09-03T05:51:46;100101.53;;;18.50;69.93
53246;BME280;39569;51.090;-1.786;2022-09-03T05:54:13;100109.78;;;18.72;68.90
53246;BME280;39569;51.090;-1.786;2022-09-03T05:56:39;100120.81;;;18.82;69.17
53246;BME280;39569;51.090;-1.786;2022-09-03T05:59:09;100117.41;;;18.86;68.78
53246;BME280;39569;51.090;-1.786;2022-09-03T06:01:37;100111.59;;;19.11;67.96
53246;BME280;39569;51.090;-1.786;2022-09-03T06:04:05;100109.44;;;18.96;67.98
53246;BME280;39569;51.090;-1.786;2022-09-03T06:06:34;100118.91;;;19.10;67.90
53246;BME280;39569;51.090;-1.786;2022-09-03T06:09:04;100120.41;;;19.18;68.10
53246;BME280;39569;51.090;-1.786;2022-09-03T06:11:35;100121.22;;;18.90;68.96
53246;BME280;39569;51.090;-1.786;2022-09-03T06:14:04;100118.50;;;18.74;69.65
53246;BME280;39569;51.090;-1.786;2022-09-03T06:16:36;100121.19;;;19.18;67.96
53246;BME280;39569;51.090;-1.786;2022-09-03T06:19:04;100119.97;;;19.09;68.31
53246;BME280;39569;51.090;-1.786;2022-09-03T06:21:31;100123.22;;;18.95;68.74
53246;BME280;39569;51.090;-1.786;2022-09-03T06:23:58;100117.81;;;19.11;68.30
53246;BME280;39569;51.090;-1.786;2022-09-03T06:26:25;100124.66;;;19.14;68.31
53246;BME280;39569;51.090;-1.786;2022-09-03T06:28:53;100125.03;;;19.50;66.94
53246;BME280;39569;51.090;-1.786;2022-09-03T06:31:21;100120.72;;;19.71;66.55
53246;BME280;39569;51.090;-1.786;2022-09-03T06:33:49;100121.22;;;19.51;67.76
53246;BME280;39569;51.090;-1.786;2022-09-03T06:36:18;100121.75;;;19.87;66.41
53246;BME280;39569;51.090;-1.786;2022-09-03T06:38:46;100131.63;;;19.76;67.01
53246;BME280;39569;51.090;-1.786;2022-09-03T06:41:15;100128.69;;;20.16;66.24
53246;BME280;39569;51.090;-1.786;2022-09-03T06:43:50;100130.81;;;20.30;66.12
53246;BME280;39569;51.090;-1.786;2022-09-03T06:46:19;100129.69;;;20.53;65.99
53246;BME280;39569;51.090;-1.786;2022-09-03T06:48:46;100125.78;;;20.44;66.64
53246;BME280;39569;51.090;-1.786;2022-09-03T06:51:15;100138.53;;;20.65;65.89
53246;BME280;39569;51.090;-1.786;2022-09-03T06:53:44;100134.91;;;20.54;66.61
53246;BME280;39569;51.090;-1.786;2022-09-03T06:56:13;100137.84;;;20.31;68.64
53246;BME280;39569;51.090;-1.786;2022-09-03T06:58:43;100138.63;;;20.48;67.81
53246;BME280;39569;51.090;-1.786;2022-09-03T07:01:12;100146.34;;;19.80;70.31
53246;BME280;39569;51.090;-1.786;2022-09-03T07:03:40;100149.63;;;19.82;70.53
53246;BME280;39569;51.090;-1.786;2022-09-03T07:06:09;100140.53;;;20.10;69.01
53246;BME280;39569;51.090;-1.786;2022-09-03T07:08:37;100144.34;;;20.52;67.48
53246;BME280;39569;51.090;-1.786;2022-09-03T07:11:05;100143.47;;;20.46;67.65
53246;BME280;39569;51.090;-1.786;2022-09-03T07:13:34;100148.66;;;20.70;67.31
53246;BME280;39569;51.090;-1.786;2022-09-03T07:16:03;100138.44;;;20.17;68.69
53246;BME280;39569;51.090;-1.786;2022-09-03T07:18:31;100133.69;;;20.67;67.15
53246;BME280;39569;51.090;-1.786;2022-09-03T07:20:59;100141.44;;;21.33;64.98
53246;BME280;39569;51.090;-1.786;2022-09-03T07:23:26;100146.34;;;21.36;64.93
53246;BME280;39569;51.090;-1.786;2022-09-03T07:25:56;100143.81;;;21.25;65.54
53246;BME280;39569;51.090;-1.786;2022-09-03T07:28:24;100146.75;;;21.23;65.76
53246;BME280;39569;51.090;-1.786;2022-09-03T07:30:51;100142.25;;;21.71;64.38
53246;BME280;39569;51.090;-1.786;2022-09-03T07:33:19;100142.63;;;22.26;62.61
53246;BME280;39569;51.090;-1.786;2022-09-03T07:35:46;100147.72;;;22.12;63.65
53246;BME280;39569;51.090;-1.786;2022-09-03T07:38:16;100148.91;;;22.98;61.24
53246;BME280;39569;51.090;-1.786;2022-09-03T07:40:43;100143.72;;;23.07;60.85
53246;BME280;39569;51.090;-1.786;2022-09-03T07:43:11;100143.78;;;23.52;59.97
53246;BME280;39569;51.090;-1.786;2022-09-03T07:45:38;100153.31;;;23.90;59.23
53246;BME280;39569;51.090;-1.786;2022-09-03T07:48:05;100148.69;;;23.50;60.35
53246;BME280;39569;51.090;-1.786;2022-09-03T07:50:32;100148.13;;;23.83;59.30
53246;BME280;39569;51.090;-1.786;2022-09-03T07:53:03;100148.91;;;23.94;59.33
53246;BME280;39569;51.090;-1.786;2022-09-03T07:55:30;100147.34;;;23.73;59.70
53246;BME280;39569;51.090;-1.786;2022-09-03T07:57:57;100156.84;;;23.85;59.34
53246;BME280;39569;51.090;-1.786;2022-09-03T08:00:25;100154.47;;;24.63;57.23
53246;BME280;39569;51.090;-1.786;2022-09-03T08:02:52;100152.25;;;24.65;57.25
53246;BME280;39569;51.090;-1.786;2022-09-03T08:05:20;100151.09;;;24.07;58.93
53246;BME280;39569;51.090;-1.786;2022-09-03T08:07:47;100147.22;;;24.38;57.98
53246;BME280;39569;51.090;-1.786;2022-09-03T08:10:14;100148.41;;;23.92;58.95
53246;BME280;39569;51.090;-1.786;2022-09-03T08:12:41;100147.28;;;25.25;55.63
53246;BME280;39569;51.090;-1.786;2022-09-03T08:15:08;100154.16;;;24.64;57.30
53246;BME280;39569;51.090;-1.786;2022-09-03T08:17:37;100155.78;;;23.71;60.10
53246;BME280;39569;51.090;-1.786;2022-09-03T08:20:04;100153.50;;;24.23;58.76
53246;BME280;39569;51.090;-1.786;2022-09-03T08:22:32;100149.22;;;24.02;59.42
53246;BME280;39569;51.090;-1.786;2022-09-03T08:24:59;100155.22;;;23.84;59.07
53246;BME280;39569;51.090;-1.786;2022-09-03T08:27:26;100144.84;;;24.06;58.99
53246;BME280;39569;51.090;-1.786;2022-09-03T08:29:53;100146.53;;;23.67;60.48
53246;BME280;39569;51.090;-1.786;2022-09-03T08:32:20;100153.25;;;24.20;59.19
53246;BME280;39569;51.090;-1.786;2022-09-03T08:34:48;100151.38;;;24.00;60.13
53246;BME280;39569;51.090;-1.786;2022-09-03T08:37:16;100152.19;;;24.90;57.30
53246;BME280;39569;51.090;-1.786;2022-09-03T08:39:44;100158.38;;;24.42;58.03
53246;BME280;39569;51.090;-1.786;2022-09-03T08:42:31;100165.38;;;24.63;58.43
53246;BME280;39569;51.090;-1.786;2022-09-03T08:45:04;100162.78;;;24.27;57.44
53246;BME280;39569;51.090;-1.786;2022-09-03T08:47:35;100170.53;;;23.60;60.00
53246;BME280;39569;51.090;-1.786;2022-09-03T08:50:11;100170.22;;;24.07;58.54
53246;BME280;39569;51.090;-1.786;2022-09-03T08:52:45;100163.84;;;24.42;57.47
53246;BME280;39569;51.090;-1.786;2022-09-03T08:55:18;100164.50;;;23.93;58.77
53246;BME280;39569;51.090;-1.786;2022-09-03T08:57:49;100170.22;;;24.02;59.33
53246;BME280;39569;51.090;-1.786;2022-09-03T09:00:21;100173.84;;;24.61;57.56
53246;BME280;39569;51.090;-1.786;2022-09-03T09:02:57;100172.34;;;24.94;56.58
53246;BME280;39569;51.090;-1.786;2022-09-03T09:05:37;100180.84;;;24.03;58.74
53246;BME280;39569;51.090;-1.786;2022-09-03T09:08:12;100174.31;;;24.04;59.13
53246;BME280;39569;51.090;-1.786;2022-09-03T09:10:44;100169.25;;;24.52;57.49
53246;BME280;39569;51.090;-1.786;2022-09-03T09:13:21;100171.50;;;24.40;57.52
53246;BME280;39569;51.090;-1.786;2022-09-03T09:15:58;100170.03;;;24.72;56.27
53246;BME280;39569;51.090;-1.786;2022-09-03T09:18:40;100166.09;;;24.88;55.64
53246;BME280;39569;51.090;-1.786;2022-09-03T09:21:14;100181.28;;;25.53;53.13
53246;BME280;39569;51.090;-1.786;2022-09-03T09:23:45;100174.63;;;25.25;53.96
53246;BME280;39569;51.090;-1.786;2022-09-03T09:26:14;100187.75;;;24.80;55.33
53246;BME280;39569;51.090;-1.786;2022-09-03T09:28:45;100185.69;;;24.36;56.16
53246;BME280;39569;51.090;-1.786;2022-09-03T09:31:14;100193.75;;;24.82;54.57
53246;BME280;39569;51.090;-1.786;2022-09-03T09:33:43;100184.84;;;25.05;54.13
53246;BME280;39569;51.090;-1.786;2022-09-03T09:36:13;100181.88;;;25.06;54.40
53246;BME280;39569;51.090;-1.786;2022-09-03T09:38:42;100187.91;;;25.42;53.46
53246;BME280;39569;51.090;-1.786;2022-09-03T09:41:11;100190.38;;;24.16;56.39
53246;BME280;39569;51.090;-1.786;2022-09-03T09:43:40;100192.53;;;24.34;55.38
53246;BME280;39569;51.090;-1.786;2022-09-03T09:46:11;100200.78;;;24.09;56.47
53246;BME280;39569;51.090;-1.786;2022-09-03T09:48:45;100206.59;;;24.81;55.02
53246;BME280;39569;51.090;-1.786;2022-09-03T09:51:18;100199.78;;;24.69;54.76
53246;BME280;39569;51.090;-1.786;2022-09-03T09:53:45;100198.59;;;24.95;54.55
53246;BME280;39569;51.090;-1.786;2022-09-03T09:56:20;100196.78;;;25.63;51.51
53246;BME280;39569;51.090;-1.786;2022-09-03T09:58:48;100198.44;;;25.25;53.21
53246;BME280;39569;51.090;-1.786;2022-09-03T10:01:21;100205.19;;;25.32;51.92
53246;BME280;39569;51.090;-1.786;2022-09-03T10:03:51;100200.31;;;24.76;54.81
53246;BME280;39569;51.090;-1.786;2022-09-03T10:06:22;100191.41;;;25.09;53.67
53246;BME280;39569;51.090;-1.786;2022-09-03T10:09:09;100196.75;;;24.70;54.39
53246;BME280;39569;51.090;-1.786;2022-09-03T10:11:38;100189.44;;;24.56;54.41
53246;BME280;39569;51.090;-1.786;2022-09-03T10:14:12;100182.88;;;25.59;51.72
53246;BME280;39569;51.090;-1.786;2022-09-03T10:16:45;100183.38;;;27.50;47.22
53246;BME280;39569;51.090;-1.786;2022-09-03T10:19:16;100180.81;;;26.79;48.82
53246;BME280;39569;51.090;-1.786;2022-09-03T10:21:52;100174.59;;;27.11;47.47
53246;BME280;39569;51.090;-1.786;2022-09-03T10:24:35;100170.84;;;27.44;46.32
53246;BME280;39569;51.090;-1.786;2022-09-03T10:27:07;100170.81;;;28.54;44.24
53246;BME280;39569;51.090;-1.786;2022-09-03T10:29:39;100175.00;;;28.20;44.08
53246;BME280;39569;51.090;-1.786;2022-09-03T10:32:24;100186.25;;;26.37;48.74
53246;BME280;39569;51.090;-1.786;2022-09-03T10:34:59;100185.34;;;25.89;49.72
53246;BME280;39569;51.090;-1.786;2022-09-03T10:37:36;100176.53;;;24.81;53.16
53246;BME280;39569;51.090;-1.786;2022-09-03T10:40:14;100180.09;;;25.25;51.44
53246;BME280;39569;51.090;-1.786;2022-09-03T10:42:49;100176.03;;;25.18;52.29
53246;BME280;39569;51.090;-1.786;2022-09-03T10:45:22;100171.09;;;25.25;52.07
53246;BME280;39569;51.090;-1.786;2022-09-03T10:48:21;100173.03;;;25.58;51.06
53246;BME280;39569;51.090;-1.786;2022-09-03T10:50:54;100173.03;;;25.58;51.10
53246;BME280;39569;51.090;-1.786;2022-09-03T10:53:46;100178.13;;;25.98;50.30
53246;BME280;39569;51.090;-1.786;2022-09-03T10:56:21;100178.66;;;25.33;52.08
53246;BME280;39569;51.090;-1.786;2022-09-03T10:59:03;100183.63;;;24.82;53.70
53246;BME280;39569;51.090;-1.786;2022-09-03T11:01:38;100187.78;;;25.91;50.88
53246;BME280;39569;51.090;-1.786;2022-09-03T11:04:18;100181.38;;;26.05;50.21
53246;BME280;39569;51.090;-1.786;2022-09-03T11:06:50;100181.88;;;26.60;49.00
53246;BME280;39569;51.090;-1.786;2022-09-03T11:09:22;100176.19;;;27.17;47.98
53246;BME280;39569;51.090;-1.786;2022-09-03T11:11:54;100175.31;;;27.72;46.45
53246;BME280;39569;51.090;-1.786;2022-09-03T11:14:32;100177.50;;;27.01;48.67
53246;BME280;39569;51.090;-1.786;2022-09-03T11:17:04;100170.44;;;27.69;46.50
53246;BME280;39569;51.090;-1.786;2022-09-03T11:19:35;100185.53;;;26.50;49.66
53246;BME280;39569;51.090;-1.786;2022-09-03T11:22:05;100173.94;;;27.00;47.85
53246;BME280;39569;51.090;-1.786;2022-09-03T11:24:37;100170.06;;;27.89;45.16
53246;BME280;39569;51.090;-1.786;2022-09-03T11:27:18;100170.16;;;28.30;44.89
53246;BME280;39569;51.090;-1.786;2022-09-03T11:29:50;100175.78;;;27.61;45.69
53246;BME280;39569;51.090;-1.786;2022-09-03T11:32:21;100173.56;;;27.44;46.13
53246;BME280;39569;51.090;-1.786;2022-09-03T11:34:51;100175.72;;;27.66;45.16
53246;BME280;39569;51.090;-1.786;2022-09-03T11:37:21;100180.81;;;26.79;46.88
53246;BME280;39569;51.090;-1.786;2022-09-03T11:40:04;100177.03;;;26.94;47.36
53246;BME280;39569;51.090;-1.786;2022-09-03T11:42:34;100174.47;;;27.02;47.06
53246;BME280;39569;51.090;-1.786;2022-09-03T11:45:19;100179.16;;;26.07;49.01
53246;BME280;39569;51.090;-1.786;2022-09-03T11:47:47;100171.53;;;26.75;47.87
53246;BME280;39569;51.090;-1.786;2022-09-03T11:50:20;100171.75;;;28.04;45.19
53246;BME280;39569;51.090;-1.786;2022-09-03T11:52:48;100174.75;;;27.38;44.61
53246;BME280;39569;51.090;-1.786;2022-09-03T11:55:29;100168.09;;;28.08;43.59
53246;BME280;39569;51.090;-1.786;2022-09-03T11:57:58;100175.19;;;27.64;43.90
53246;BME280;39569;51.090;-1.786;2022-09-03T12:00:35;100177.09;;;26.47;46.25
53246;BME280;39569;51.090;-1.786;2022-09-03T12:03:03;100181.69;;;26.51;46.54
53246;BME280;39569;51.090;-1.786;2022-09-03T12:05:38;100170.78;;;26.93;45.34
53246;BME280;39569;51.090;-1.786;2022-09-03T12:08:21;100179.84;;;26.70;45.29
53246;BME280;39569;51.090;-1.786;2022-09-03T12:11:01;100186.59;;;26.78;45.07
53246;BME280;39569;51.090;-1.786;2022-09-03T12:13:44;100182.97;;;25.49;47.82
53246;BME280;39569;51.090;-1.786;2022-09-03T12:16:31;100190.41;;;25.44;48.33
53246;BME280;39569;51.090;-1.786;2022-09-03T12:19:06;100187.25;;;25.89;47.84
53246;BME280;39569;51.090;-1.786;2022-09-03T12:21:37;100186.84;;;25.43;49.04
53246;BME280;39569;51.090;-1.786;2022-09-03T12:24:07;100188.78;;;25.32;49.23
53246;BME280;39569;51.090;-1.786;2022-09-03T12:26:40;100199.22;;;24.82;49.98
53246;BME280;39569;51.090;-1.786;2022-09-03T12:29:22;100191.91;;;25.60;48.48
53246;BME280;39569;51.090;-1.786;2022-09-03T12:31:49;100194.22;;;25.38;48.63
53246;BME280;39569;51.090;-1.786;2022-09-03T12:34:17;100193.16;;;25.39;48.48
53246;BME280;39569;51.090;-1.786;2022-09-03T12:36:46;100200.25;;;25.34;49.17
53246;BME280;39569;51.090;-1.786;2022-09-03T12:39:15;100201.38;;;25.33;49.33
53246;BME280;39569;51.090;-1.786;2022-09-03T12:41:57;100205.06;;;25.09;49.98
53246;BME280;39569;51.090;-1.786;2022-09-03T12:44:26;100208.81;;;25.23;48.94
53246;BME280;39569;51.090;-1.786;2022-09-03T12:47:05;100206.03;;;24.84;50.72
53246;BME280;39569;51.090;-1.786;2022-09-03T12:49:36;100211.81;;;25.99;47.98
53246;BME280;39569;51.090;-1.786;2022-09-03T12:52:09;100209.06;;;26.51;46.86
53246;BME280;39569;51.090;-1.786;2022-09-03T12:54:43;100202.75;;;25.70;48.55
53246;BME280;39569;51.090;-1.786;2022-09-03T12:57:18;100211.50;;;25.38;49.64
53246;BME280;39569;51.090;-1.786;2022-09-03T12:59:47;100206.13;;;25.90;48.40
53246;BME280;39569;51.090;-1.786;2022-09-03T13:02:19;100209.78;;;26.62;47.61